Shabbona, Illinois
Current Conditions -  °F | °C
As of 4:15 PM on Thursday 18 Dec 2014 (Local Time) from KRPJ Reporting Station
Overcast Overcast  
Wind Chill: 19°   Ceiling: 2000
Heat Index: 25°   Visibility: 10mi
Dew Point: 19°   Wind: 5mph
Humidity: 77%   Direction: 270°W
Pressure: 30.25"   Gusts: NA
Location:  41.77°N, 88.88°W
Report Text: KRPJ 182215Z AUTO 27004KT 10SM OVC020 M04/M07 A3025 RMK AO2 T10381073
Loading
Personal Weather Stations






























Interactive Weather Map New forecast layout! Learn more

10-Day Weather Forecast

Advertisements
Track Severe Weather on mobile